Airfield :
LOGIN :

Register | Disclaimer

   EN    FR    IT 

 










Legend :    VFR   Marginal VFR   IFR   Intensive IFR   Very Intensive IFR
Visi :
Ceiling :
>= 8 km
>= 3000ft
5 to 8 km
1000 to 3000 ft
1500m to 5 km
500 to 1000 ft
800 to 1500m
200 to 500 ft
< 800m
< 200 ft
Symbols :   Thunderstorms  Fog  Heavy snow  Heavy precipitations  Wind > 20 kt
SIGMETs :     Misc.  Thunderstorms  Icing  Turbulence  Mountain Waves  Volcanic Ashes







- Airport Elevation : 423 ft
- IATA code : PIS
- Download approach charts


LFBI - Poitiers

CURRENT METAR :
  • 231930Z AUTO 10004KT 060V120 9999 SCT023 BKN034 OVC041 06/03 Q1013 NOSIG

EXPIRED METARs :
  • 231900Z AUTO VRB02KT 9999 SCT022 SCT037 BKN140 05/04 Q1013 TEMPO 4000 -RA BKN014
  • 231830Z AUTO 33003KT 9999 ///TCU 05/03 Q1012 TEMPO 4000 -RA BECMG SCT020 BKN030
  • 231800Z AUTO 28004KT 250V310 9999 FEW029/// OVC100/// ///TCU 06/03 Q1012 TEMPO 4000 -RA BKN014
  • 231730Z AUTO 21010KT 170V250 9999 -RA FEW014/// BKN024/// BKN031/// ///TCU 06/04 Q1011 BECMG BKN020
  • 231700Z AUTO 19005KT 150V220 9999 SCT023/// BKN035/// BKN042/// ///TCU 08/04 Q1010 TEMPO 4000 -RA BECMG BKN020

TAF TAF LFBI
Valid from the 23 at 18:00 until the 24 at 18:00 UTC


231700Z 2318/2418 20006KT 9999 SCT020 BKN030
TEMPO 2318/2320 4000 -RA BKN014
TEMPO 2323/2409 4000 BR BKN002
BECMG 2409/2411 SCT012
BECMG 2416/2418 4000 -RA BKN007
No reported NOTAMs for that airfield.



MET'MAP, your aeronautical weather chart ! - Copyright ORBIFLY December 2007 - Disclaimer

ORBIFLY MET'MAP TEAM :

Programming & Development : Alexandra Zaïnal
Concept & Development : Baudouin d'Aumeries
Co-Development & Prog : Marc-Olivier Méhu
Technical & hardware support : Manuel Goepfert

Contact : metmap@orbifly.com




SOURCES & CREDITS :

   NOAA